Time;durP1;ratioP1;P1;durP2;ratioP2;P2;SDS_P1;SDS_P2;PMS_P1;PMS_P2;Temp;Humidity;BMP_temperature;BMP_pressure;BME280_temperature;BME280_humidity;BME280_pressure;Samples;Min_cycle;Max_cycle;Signal;HPM_P1;HPM_P2
2023/06/28 00:00:24;;;;;;;7.20;2.10;;;;;;;;;;5027164;28;20099;-79
2023/06/28 00:03:10;;;;;;;3.22;1.70;;;;;;;;;;5031420;28;20033;-78
2023/06/28 00:05:56;;;;;;;3.58;2.53;;;;;;;;;;5024118;28;20040;-71
2023/06/28 00:08:41;;;;;;;3.65;1.70;;;;;;;;;;5029874;28;20443;-77
2023/06/28 00:11:27;;;;;;;4.75;1.73;;;;;;;;;;5039017;28;20143;-78
2023/06/28 00:14:12;;;;;;;4.20;1.98;;;;;;;;;;5028672;28;20068;-79
2023/06/28 00:16:59;;;;;;;4.38;1.88;;;;;;;;;;5025435;28;20459;-78
2023/06/28 00:19:49;;;;;;;5.53;2.08;;;;;;;;;;5030510;28;20464;-77
2023/06/28 00:22:34;;;;;;;;;;;;;;;;;;5025109;28;20026;-78
2023/06/28 00:25:19;;;;;;;5.88;1.90;;;;;;;;;;5045147;28;19986;-76
2023/06/28 00:28:04;;;;;;;3.97;1.77;;;;;;;;;;5033236;28;20033;-79
2023/06/28 00:30:50;;;;;;;6.72;1.85;;;;;;;;;;5036759;28;20492;-78
2023/06/28 00:33:35;;;;;;;4.45;1.33;;;;;;;;;;5035975;28;20025;-79
2023/06/28 00:36:20;;;;;;;3.15;1.60;;;;;;;;;;5021390;28;20037;-78
2023/06/28 00:39:05;;;;;;;4.30;1.70;;;;;;;;;;5030234;28;20033;-79
2023/06/28 00:41:50;;;;;;;4.45;1.80;;;;;;;;;;5038595;28;20048;-72
2023/06/28 00:44:36;;;;;;;5.35;2.10;;;;;;;;;;5024628;28;20029;-70
2023/06/28 00:47:21;;;;;;;5.75;2.25;;;;;;;;;;5031566;28;20257;-73
2023/06/28 00:50:07;;;;;;;3.72;1.80;;;;;;;;;;5024556;28;20029;-74
2023/06/28 00:52:52;;;;;;;3.25;1.75;;;;;;;;;;5022508;28;20117;-73
2023/06/28 00:55:37;;;;;;;5.35;2.30;;;;;;;;;;5035866;28;20504;-72
2023/06/28 00:58:24;;;;;;;6.68;2.63;;;;;;;;;;5030629;28;20041;-74
2023/06/28 01:01:10;;;;;;;6.97;1.92;;;;;;;;;;5037806;28;20041;-79
2023/06/28 01:03:56;;;;;;;4.07;1.60;;;;;;;;;;5038235;28;20377;-73
2023/06/28 01:06:43;;;;;;;4.97;2.70;;;;;;;;;;5026424;28;20031;-75
2023/06/28 01:09:30;;;;;;;4.60;1.80;;;;;;;;;;5038817;28;20279;-72
2023/06/28 01:12:15;;;;;;;4.88;1.80;;;;;;;;;;5022225;28;20038;-74
2023/06/28 01:15:01;;;;;;;4.10;2.08;;;;;;;;;;5031185;28;20124;-73
2023/06/28 01:17:46;;;;;;;3.97;1.73;;;;;;;;;;5022884;28;20069;-72
2023/06/28 01:20:31;;;;;;;4.22;1.70;;;;;;;;;;5033551;28;20109;-75
2023/06/28 01:23:17;;;;;;;5.72;2.20;;;;;;;;;;5025676;28;20097;-70
2023/06/28 01:26:02;;;;;;;3.20;2.10;;;;;;;;;;5037272;28;20031;-72
2023/06/28 01:28:49;;;;;;;3.65;2.03;;;;;;;;;;5017850;28;20435;-69
2023/06/28 01:31:36;;;;;;;5.28;2.13;;;;;;;;;;5029511;28;20033;-70
2023/06/28 01:34:22;;;;;;;5.35;2.10;;;;;;;;;;5022408;28;20437;-70
2023/06/28 01:37:07;;;;;;;6.68;2.53;;;;;;;;;;5022915;28;20049;-70
2023/06/28 01:39:52;;;;;;;9.35;2.50;;;;;;;;;;5034947;28;20528;-69
2023/06/28 01:42:38;;;;;;;5.03;2.50;;;;;;;;;;5011837;28;20041;-69
2023/06/28 01:45:24;;;;;;;3.83;2.08;;;;;;;;;;5028194;28;20109;-68
2023/06/28 01:48:09;;;;;;;5.50;2.17;;;;;;;;;;5022691;28;20036;-68
2023/06/28 01:50:54;;;;;;;3.47;1.70;;;;;;;;;;5023203;28;20647;-69
2023/06/28 01:53:39;;;;;;;5.70;2.58;;;;;;;;;;5042070;28;20087;-68
2023/06/28 01:56:25;;;;;;;8.07;2.10;;;;;;;;;;5038018;28;20113;-74
2023/06/28 01:59:10;;;;;;;5.43;1.92;;;;;;;;;;5021498;28;20084;-71
2023/06/28 02:01:55;;;;;;;5.82;2.33;;;;;;;;;;5029000;28;20072;-70
2023/06/28 02:04:40;;;;;;;6.03;2.25;;;;;;;;;;5026799;28;20106;-72
2023/06/28 02:07:25;;;;;;;6.13;2.97;;;;;;;;;;5035192;28;20021;-71
2023/06/28 02:10:11;;;;;;;5.25;2.13;;;;;;;;;;5032925;28;20036;-73
2023/06/28 02:12:56;;;;;;;4.80;1.80;;;;;;;;;;5025664;28;20032;-73
2023/06/28 02:15:41;;;;;;;4.93;1.88;;;;;;;;;;5020022;28;20064;-69
2023/06/28 02:18:27;;;;;;;6.53;2.35;;;;;;;;;;5020440;28;20029;-79
2023/06/28 02:21:14;;;;;;;7.78;2.47;;;;;;;;;;5033014;28;20033;-78
2023/06/28 02:23:59;;;;;;;4.70;1.85;;;;;;;;;;5021739;28;20033;-78
2023/06/28 02:26:44;;;;;;;6.00;1.60;;;;;;;;;;5009972;28;20025;-78
2023/06/28 02:29:29;;;;;;;2.90;1.98;;;;;;;;;;5019062;28;20463;-79
2023/06/28 02:32:15;;;;;;;5.13;3.10;;;;;;;;;;5016990;28;20021;-70
2023/06/28 02:35:00;;;;;;;5.85;2.10;;;;;;;;;;5014276;28;20395;-78
2023/06/28 02:37:45;;;;;;;3.80;1.98;;;;;;;;;;5031946;28;20033;-71
2023/06/28 02:40:30;;;;;;;7.03;1.80;;;;;;;;;;5007155;28;20468;-72
2023/06/28 02:43:15;;;;;;;5.72;2.08;;;;;;;;;;5023609;28;20041;-70
2023/06/28 02:46:01;;;;;;;6.90;2.15;;;;;;;;;;5030691;28;20021;-71
2023/06/28 02:48:46;;;;;;;5.25;2.00;;;;;;;;;;5022055;28;20063;-70
2023/06/28 02:51:31;;;;;;;5.82;1.83;;;;;;;;;;5028460;28;20369;-72
2023/06/28 02:54:17;;;;;;;7.00;1.90;;;;;;;;;;5035909;28;20047;-69
2023/06/28 02:57:02;;;;;;;3.03;1.83;;;;;;;;;;5033378;28;20033;-71
2023/06/28 02:59:47;;;;;;;8.50;2.38;;;;;;;;;;5020444;28;20033;-70
2023/06/28 03:02:32;;;;;;;6.68;2.60;;;;;;;;;;5027733;28;20040;-70
2023/06/28 03:05:17;;;;;;;5.53;1.98;;;;;;;;;;5020536;28;20449;-70
2023/06/28 03:08:03;;;;;;;4.22;1.98;;;;;;;;;;5020384;28;20046;-71
2023/06/28 03:10:49;;;;;;;4.53;2.17;;;;;;;;;;5025567;28;20091;-71
2023/06/28 03:13:34;;;;;;;9.38;2.15;;;;;;;;;;5020263;28;20035;-74
2023/06/28 03:16:20;;;;;;;4.75;2.25;;;;;;;;;;5036787;28;20132;-72
2023/06/28 03:19:07;;;;;;;6.85;2.28;;;;;;;;;;5019004;28;20420;-74
2023/06/28 03:21:52;;;;;;;4.72;2.13;;;;;;;;;;5021462;28;20060;-75
2023/06/28 03:24:37;;;;;;;5.30;1.95;;;;;;;;;;5034852;28;20033;-73
2023/06/28 03:27:24;;;;;;;4.10;2.00;;;;;;;;;;5028901;28;20035;-73
2023/06/28 03:30:09;;;;;;;4.38;1.98;;;;;;;;;;5024484;28;20032;-77
2023/06/28 03:32:55;;;;;;;3.78;2.03;;;;;;;;;;5018136;28;20116;-74
2023/06/28 03:35:40;;;;;;;5.93;2.10;;;;;;;;;;5035084;28;20025;-71
2023/06/28 03:38:25;;;;;;;4.72;1.88;;;;;;;;;;5034121;28;20091;-75
2023/06/28 03:41:10;;;;;;;6.35;2.75;;;;;;;;;;5023233;28;20045;-72
2023/06/28 03:43:56;;;;;;;3.92;1.98;;;;;;;;;;5020644;28;20037;-73
2023/06/28 03:46:41;;;;;;;6.35;2.38;;;;;;;;;;5039868;28;20037;-69
2023/06/28 03:49:26;;;;;;;3.35;1.95;;;;;;;;;;5023532;28;20029;-69
2023/06/28 03:52:11;;;;;;;5.40;2.28;;;;;;;;;;5027207;28;20124;-71
2023/06/28 03:54:56;;;;;;;3.05;1.70;;;;;;;;;;5025773;28;20160;-70
2023/06/28 03:57:42;;;;;;;5.55;2.53;;;;;;;;;;5023047;28;20038;-68
2023/06/28 04:00:27;;;;;;;6.05;2.08;;;;;;;;;;5030334;28;20037;-69
2023/06/28 04:03:12;;;;;;;6.70;2.42;;;;;;;;;;5019038;28;20514;-69
2023/06/28 04:05:57;;;;;;;8.05;2.65;;;;;;;;;;5018826;28;20088;-75
2023/06/28 04:08:46;;;;;;;3.95;2.33;;;;;;;;;;5038735;28;20535;-72
2023/06/28 04:11:32;;;;;;;3.60;1.80;;;;;;;;;;5021908;28;20482;-73
2023/06/28 04:14:17;;;;;;;6.20;2.20;;;;;;;;;;5038007;28;20033;-71
2023/06/28 04:17:02;;;;;;;4.93;2.38;;;;;;;;;;5034473;28;20483;-71
2023/06/28 04:19:48;;;;;;;5.13;2.30;;;;;;;;;;5016493;28;20128;-72
2023/06/28 04:22:33;;;;;;;6.03;2.20;;;;;;;;;;5036656;28;20468;-69
2023/06/28 04:25:18;;;;;;;4.63;2.40;;;;;;;;;;5024128;28;20030;-71
2023/06/28 04:28:04;;;;;;;4.18;2.25;;;;;;;;;;5021846;28;20498;-69
2023/06/28 04:30:49;;;;;;;5.43;2.30;;;;;;;;;;5027122;28;20083;-70
2023/06/28 04:33:35;;;;;;;4.53;2.00;;;;;;;;;;5024979;28;20496;-71
2023/06/28 04:36:21;;;;;;;3.53;1.90;;;;;;;;;;5033818;28;20032;-71
2023/06/28 04:39:07;;;;;;;5.28;2.17;;;;;;;;;;5030864;28;20048;-70
2023/06/28 04:41:52;;;;;;;6.20;2.80;;;;;;;;;;5019617;28;20045;-79
2023/06/28 04:44:41;;;;;;;3.15;1.80;;;;;;;;;;5025113;28;20025;-69
2023/06/28 04:47:28;;;;;;;4.70;1.83;;;;;;;;;;5040140;28;20037;-69
2023/06/28 04:50:13;;;;;;;5.00;2.30;;;;;;;;;;5022557;28;20033;-69
2023/06/28 04:52:58;;;;;;;5.30;2.65;;;;;;;;;;5027372;28;20090;-70
2023/06/28 04:55:43;;;;;;;6.95;2.58;;;;;;;;;;5038327;28;20541;-69
2023/06/28 04:58:28;;;;;;;5.30;2.15;;;;;;;;;;5037190;28;20044;-68
2023/06/28 05:01:14;;;;;;;3.85;2.33;;;;;;;;;;5022309;28;20026;-81
2023/06/28 05:03:59;;;;;;;5.18;2.40;;;;;;;;;;5025859;28;20094;-72
2023/06/28 05:06:44;;;;;;;5.60;2.30;;;;;;;;;;5030411;28;20037;-66
2023/06/28 05:09:30;;;;;;;4.80;2.33;;;;;;;;;;5037187;28;20036;-63
2023/06/28 05:12:16;;;;;;;7.78;2.70;;;;;;;;;;5027243;28;20530;-66
2023/06/28 05:15:01;;;;;;;4.93;2.47;;;;;;;;;;5019101;28;20045;-64
2023/06/28 05:17:47;;;;;;;10.15;3.70;;;;;;;;;;5029467;28;20044;-66
2023/06/28 05:20:32;;;;;;;8.07;3.03;;;;;;;;;;5016924;28;20496;-65
2023/06/28 05:23:18;;;;;;;8.90;3.00;;;;;;;;;;5029757;28;20030;-72
2023/06/28 05:26:03;;;;;;;6.30;2.40;;;;;;;;;;5027683;28;20022;-72
2023/06/28 05:28:49;;;;;;;7.57;2.55;;;;;;;;;;5022781;28;20030;-71
2023/06/28 05:31:37;;;;;;;5.55;2.47;;;;;;;;;;5024869;28;20033;-70
2023/06/28 05:34:22;;;;;;;5.00;2.53;;;;;;;;;;5024252;28;20033;-71
2023/06/28 05:37:08;;;;;;;7.50;2.35;;;;;;;;;;5028338;28;20284;-69
2023/06/28 05:39:53;;;;;;;9.07;2.40;;;;;;;;;;5043487;28;20384;-62
2023/06/28 05:42:38;;;;;;;3.83;2.25;;;;;;;;;;5029798;28;20092;-67
2023/06/28 05:45:27;;;;;;;6.65;2.55;;;;;;;;;;5018947;28;20030;-64
2023/06/28 05:48:13;;;;;;;7.93;2.33;;;;;;;;;;5040083;28;20098;-62
2023/06/28 05:50:58;;;;;;;5.32;2.15;;;;;;;;;;5032055;28;20415;-66
2023/06/28 05:53:43;;;;;;;9.98;2.88;;;;;;;;;;5025246;28;20033;-68
2023/06/28 05:56:29;;;;;;;5.93;2.65;;;;;;;;;;5031100;28;20053;-67
2023/06/28 05:59:14;;;;;;;4.70;2.17;;;;;;;;;;5008133;28;20527;-67
2023/06/28 06:02:00;;;;;;;6.20;2.50;;;;;;;;;;5038382;28;20419;-67
2023/06/28 06:04:45;;;;;;;8.18;2.53;;;;;;;;;;5029872;28;20502;-70
2023/06/28 06:07:30;;;;;;;5.43;2.30;;;;;;;;;;5026589;28;20036;-73
2023/06/28 06:10:15;;;;;;;3.15;2.00;;;;;;;;;;5028735;28;20033;-67
2023/06/28 06:13:01;;;;;;;5.35;1.90;;;;;;;;;;5021632;28;20038;-64
2023/06/28 06:15:46;;;;;;;5.43;2.20;;;;;;;;;;5023207;28;20045;-69
2023/06/28 06:18:31;;;;;;;4.28;2.45;;;;;;;;;;5051621;28;20088;-70
2023/06/28 06:21:16;;;;;;;4.40;2.15;;;;;;;;;;5029539;28;20037;-68
2023/06/28 06:24:07;;;;;;;8.40;2.90;;;;;;;;;;5026028;28;20029;-68
2023/06/28 06:26:52;;;;;;;6.65;2.92;;;;;;;;;;5019362;28;20116;-67
2023/06/28 06:29:37;;;;;;;6.25;2.20;;;;;;;;;;5029341;28;20033;-67
2023/06/28 06:32:22;;;;;;;6.25;2.20;;;;;;;;;;5034522;28;20487;-66
2023/06/28 06:35:08;;;;;;;5.93;2.67;;;;;;;;;;5023049;28;20092;-70
2023/06/28 06:37:53;;;;;;;4.50;2.20;;;;;;;;;;5024640;28;20114;-71
2023/06/28 06:40:38;;;;;;;4.80;2.17;;;;;;;;;;5021822;28;20026;-69
2023/06/28 06:43:24;;;;;;;7.28;2.42;;;;;;;;;;5038320;28;20472;-70
2023/06/28 06:46:09;;;;;;;5.82;1.90;;;;;;;;;;5030808;28;20037;-70
2023/06/28 06:48:55;;;;;;;5.97;2.67;;;;;;;;;;5034443;28;20045;-71
2023/06/28 06:51:40;;;;;;;4.75;1.80;;;;;;;;;;5023309;28;20376;-69
2023/06/28 06:54:25;;;;;;;5.25;2.40;;;;;;;;;;5025999;28;20033;-70
2023/06/28 06:57:10;;;;;;;7.95;3.00;;;;;;;;;;5024542;28;20029;-70
2023/06/28 06:59:56;;;;;;;8.48;3.25;;;;;;;;;;5026391;28;20594;-69
2023/06/28 07:02:41;;;;;;;5.68;2.25;;;;;;;;;;5023925;28;20120;-68
2023/06/28 07:05:26;;;;;;;6.55;1.90;;;;;;;;;;5025264;28;20052;-68
2023/06/28 07:08:11;;;;;;;7.05;2.35;;;;;;;;;;5024599;28;20033;-71
2023/06/28 07:10:57;;;;;;;3.85;2.00;;;;;;;;;;5032255;28;20029;-66
2023/06/28 07:13:42;;;;;;;5.65;2.20;;;;;;;;;;5026083;28;20025;-66
2023/06/28 07:16:27;;;;;;;5.28;2.00;;;;;;;;;;5027246;28;20148;-65
2023/06/28 07:19:12;;;;;;;7.00;2.15;;;;;;;;;;5023636;28;20399;-65
2023/06/28 07:21:58;;;;;;;5.25;2.92;;;;;;;;;;5025838;28;20059;-65
2023/06/28 07:24:43;;;;;;;4.20;2.10;;;;;;;;;;5043076;28;20635;-63
2023/06/28 07:27:28;;;;;;;6.80;2.25;;;;;;;;;;5025034;28;20044;-70
2023/06/28 07:30:14;;;;;;;3.20;1.98;;;;;;;;;;5026532;28;20628;-64
2023/06/28 07:32:59;;;;;;;3.58;1.70;;;;;;;;;;5025242;28;20805;-66
2023/06/28 07:35:44;;;;;;;4.80;1.90;;;;;;;;;;5024513;28;20025;-65
2023/06/28 07:38:29;;;;;;;4.35;2.17;;;;;;;;;;5028832;28;20029;-65
2023/06/28 07:41:15;;;;;;;6.20;1.95;;;;;;;;;;5021431;28;20043;-67
2023/06/28 07:44:00;;;;;;;4.78;2.00;;;;;;;;;;5024180;28;20119;-68
2023/06/28 07:46:45;;;;;;;5.35;1.88;;;;;;;;;;5031144;28;20025;-72
2023/06/28 07:49:30;;;;;;;5.60;1.95;;;;;;;;;;5027191;28;20100;-68
2023/06/28 07:52:16;;;;;;;4.20;2.35;;;;;;;;;;5026258;28;20499;-66
2023/06/28 07:55:02;;;;;;;3.42;1.60;;;;;;;;;;5026996;28;20029;-67
2023/06/28 07:57:48;;;;;;;3.67;1.75;;;;;;;;;;5022191;28;20073;-67
2023/06/28 08:00:33;;;;;;;3.35;1.80;;;;;;;;;;5028340;28;20055;-67
2023/06/28 08:03:19;;;;;;;3.35;1.67;;;;;;;;;;5026234;28;20037;-66
2023/06/28 08:06:04;;;;;;;8.10;2.10;;;;;;;;;;5026674;28;20148;-65
2023/06/28 08:08:50;;;;;;;3.78;1.98;;;;;;;;;;5031203;28;20123;-62
2023/06/28 08:11:36;;;;;;;4.53;1.67;;;;;;;;;;5036387;28;20068;-64
2023/06/28 08:14:21;;;;;;;2.95;1.73;;;;;;;;;;5028091;28;20108;-65
2023/06/28 08:17:06;;;;;;;5.43;2.67;;;;;;;;;;5023532;28;20044;-63
2023/06/28 08:19:54;;;;;;;8.25;2.22;;;;;;;;;;5040567;28;20025;-66
2023/06/28 08:22:39;;;;;;;7.22;1.92;;;;;;;;;;5040310;28;20392;-67
2023/06/28 08:25:24;;;;;;;4.35;1.70;;;;;;;;;;5029764;28;20044;-67
2023/06/28 08:28:09;;;;;;;7.60;2.28;;;;;;;;;;5024665;28;20385;-67
2023/06/28 08:30:55;;;;;;;8.35;2.38;;;;;;;;;;5029106;28;20051;-66
2023/06/28 08:33:40;;;;;;;5.13;2.13;;;;;;;;;;5036455;28;20030;-66
2023/06/28 08:36:25;;;;;;;6.82;1.58;;;;;;;;;;5015322;28;20037;-67
2023/06/28 08:39:11;;;;;;;5.15;2.30;;;;;;;;;;5036746;28;20201;-67
2023/06/28 08:41:57;;;;;;;5.72;1.92;;;;;;;;;;5043705;28;20037;-68
2023/06/28 08:44:44;;;;;;;4.40;2.17;;;;;;;;;;5042436;28;20021;-66
2023/06/28 08:47:32;;;;;;;5.20;2.00;;;;;;;;;;5030334;28;20408;-67
2023/06/28 08:50:17;;;;;;;4.10;1.70;;;;;;;;;;5027291;28;20085;-68
2023/06/28 08:53:04;;;;;;;5.10;2.08;;;;;;;;;;5033457;28;20458;-68
2023/06/28 08:55:51;;;;;;;7.28;1.83;;;;;;;;;;5036881;28;20029;-66
2023/06/28 08:58:36;;;;;;;9.63;2.35;;;;;;;;;;5043462;28;20033;-65
2023/06/28 09:01:24;;;;;;;5.78;2.22;;;;;;;;;;5028725;28;20028;-67
2023/06/28 09:04:10;;;;;;;5.82;2.53;;;;;;;;;;5028521;28;20133;-71
2023/06/28 09:06:55;;;;;;;9.73;2.30;;;;;;;;;;5027086;28;20408;-72
2023/06/28 09:09:42;;;;;;;2.53;1.70;;;;;;;;;;5031546;28;20025;-70
2023/06/28 09:12:28;;;;;;;4.85;1.58;;;;;;;;;;5029310;28;20033;-70
2023/06/28 09:15:13;;;;;;;5.90;2.25;;;;;;;;;;5027703;28;20140;-70
2023/06/28 09:17:58;;;;;;;4.38;2.85;;;;;;;;;;5028594;28;20087;-70
2023/06/28 09:20:50;;;;;;;4.50;1.80;;;;;;;;;;5031392;28;20036;-68
2023/06/28 09:23:35;;;;;;;3.60;1.88;;;;;;;;;;5037800;28;20478;-67
2023/06/28 09:26:28;;;;;;;3.53;1.98;;;;;;;;;;5028363;28;20471;-65
2023/06/28 09:29:14;;;;;;;4.32;2.38;;;;;;;;;;5038159;28;20037;-68
2023/06/28 09:32:00;;;;;;;8.63;2.20;;;;;;;;;;5028123;28;20091;-66
2023/06/28 09:34:45;;;;;;;5.22;2.28;;;;;;;;;;5023449;28;20025;-65
2023/06/28 09:37:30;;;;;;;5.32;2.00;;;;;;;;;;5026876;28;20034;-72
2023/06/28 09:40:16;;;;;;;4.82;1.98;;;;;;;;;;5037038;28;20026;-71
2023/06/28 09:43:02;;;;;;;4.53;2.00;;;;;;;;;;5040723;28;20152;-71
2023/06/28 09:45:48;;;;;;;7.28;2.33;;;;;;;;;;5028924;28;20040;-73
2023/06/28 09:48:35;;;;;;;8.02;2.15;;;;;;;;;;5025993;28;20449;-71
2023/06/28 09:51:20;;;;;;;4.10;2.00;;;;;;;;;;5026394;28;20033;-70
2023/06/28 09:54:06;;;;;;;4.95;2.00;;;;;;;;;;5043983;28;20037;-67
2023/06/28 09:56:53;;;;;;;6.80;2.40;;;;;;;;;;5041623;28;20365;-70
2023/06/28 09:59:39;;;;;;;5.95;1.90;;;;;;;;;;5026114;28;20743;-68
2023/06/28 10:02:25;;;;;;;5.00;2.00;;;;;;;;;;5034514;28;20021;-69
2023/06/28 10:05:10;;;;;;;5.72;2.03;;;;;;;;;;5029383;28;20064;-69
2023/06/28 10:07:56;;;;;;;8.80;2.28;;;;;;;;;;5023635;28;20098;-69
2023/06/28 10:10:42;;;;;;;5.63;1.77;;;;;;;;;;5028116;28;20029;-71
2023/06/28 10:13:28;;;;;;;5.43;2.28;;;;;;;;;;5033258;28;20539;-64
2023/06/28 10:16:15;;;;;;;3.80;1.88;;;;;;;;;;5026944;28;20065;-66
2023/06/28 10:19:00;;;;;;;6.05;2.13;;;;;;;;;;5040786;28;20392;-64
2023/06/28 10:21:45;;;;;;;5.32;2.15;;;;;;;;;;5024034;28;20044;-65
2023/06/28 10:24:35;;;;;;;5.15;1.90;;;;;;;;;;5026689;28;20025;-67
2023/06/28 10:27:20;;;;;;;3.70;1.92;;;;;;;;;;5025437;28;20034;-67
2023/06/28 10:30:06;;;;;;;8.30;2.30;;;;;;;;;;5026880;28;20035;-65
2023/06/28 10:32:52;;;;;;;3.28;2.00;;;;;;;;;;5038328;28;20025;-69
2023/06/28 10:35:38;;;;;;;8.27;3.10;;;;;;;;;;5028756;28;20147;-69
2023/06/28 10:38:24;;;;;;;4.78;2.20;;;;;;;;;;5022925;28;20041;-72
2023/06/28 10:41:13;;;;;;;10.02;1.75;;;;;;;;;;5028027;28;20045;-71
2023/06/28 10:43:58;;;;;;;;;;;;;;;;;;5028463;28;20041;-72
2023/06/28 10:46:43;;;;;;;5.80;1.75;;;;;;;;;;5033009;28;19947;-71
2023/06/28 10:49:33;;;;;;;4.43;1.80;;;;;;;;;;5038464;28;20513;-67
2023/06/28 10:52:18;;;;;;;6.07;1.70;;;;;;;;;;5041174;28;20475;-70
2023/06/28 10:55:03;;;;;;;4.60;1.70;;;;;;;;;;5034041;28;20029;-72
2023/06/28 10:58:08;;;;;;;4.63;1.60;;;;;;;;;;5029175;28;20049;-70
2023/06/28 11:00:53;;;;;;;3.47;1.77;;;;;;;;;;5026470;28;20108;-71
2023/06/28 11:03:42;;;;;;;5.85;1.83;;;;;;;;;;5033396;28;20033;-70
2023/06/28 11:06:28;;;;;;;3.70;1.90;;;;;;;;;;5027393;28;20167;-70
2023/06/28 11:09:14;;;;;;;5.25;2.00;;;;;;;;;;5038476;28;20483;-63
2023/06/28 11:12:00;;;;;;;5.75;2.17;;;;;;;;;;5027593;28;20041;-68
2023/06/28 11:14:45;;;;;;;2.97;1.80;;;;;;;;;;5023571;28;20029;-66
2023/06/28 11:17:31;;;;;;;7.60;2.30;;;;;;;;;;5026667;28;20045;-68
2023/06/28 11:20:16;;;;;;;4.63;1.77;;;;;;;;;;5026969;28;20030;-67
2023/06/28 11:23:02;;;;;;;3.53;1.95;;;;;;;;;;5035937;28;20037;-66
2023/06/28 11:25:47;;;;;;;8.10;2.63;;;;;;;;;;5028822;28;20025;-66
2023/06/28 11:28:33;;;;;;;4.07;1.50;;;;;;;;;;5028107;28;20522;-64
2023/06/28 11:31:21;;;;;;;6.22;1.95;;;;;;;;;;5031378;28;20037;-67
2023/06/28 11:34:09;;;;;;;3.47;1.70;;;;;;;;;;5028582;28;20030;-66
2023/06/28 11:36:54;;;;;;;3.78;1.77;;;;;;;;;;5035362;28;20071;-66
2023/06/28 11:39:40;;;;;;;6.32;1.83;;;;;;;;;;5025980;28;20057;-65
2023/06/28 11:42:25;;;;;;;5.30;1.58;;;;;;;;;;5028422;28;20141;-69
2023/06/28 11:45:10;;;;;;;5.28;1.90;;;;;;;;;;5040210;28;20047;-74
2023/06/28 11:47:56;;;;;;;6.03;1.80;;;;;;;;;;5023930;28;20033;-68
2023/06/28 11:50:41;;;;;;;4.07;2.00;;;;;;;;;;5026990;28;20033;-68
2023/06/28 11:53:27;;;;;;;4.70;1.70;;;;;;;;;;5036037;28;20059;-68
2023/06/28 11:56:12;;;;;;;5.80;1.90;;;;;;;;;;5031096;28;20090;-68
2023/06/28 11:58:57;;;;;;;5.75;2.15;;;;;;;;;;5031346;28;20037;-67
2023/06/28 12:01:43;;;;;;;4.50;1.88;;;;;;;;;;5030359;28;20034;-66
2023/06/28 12:04:28;;;;;;;4.43;1.67;;;;;;;;;;5028485;28;20508;-66
2023/06/28 12:07:13;;;;;;;3.65;1.80;;;;;;;;;;5026512;28;20095;-68
2023/06/28 12:09:59;;;;;;;5.00;1.80;;;;;;;;;;5034083;28;20090;-68
2023/06/28 12:12:44;;;;;;;4.28;1.67;;;;;;;;;;5029999;28;20026;-69
2023/06/28 12:15:30;;;;;;;5.05;1.80;;;;;;;;;;5038280;28;20049;-70
2023/06/28 12:18:15;;;;;;;6.97;2.78;;;;;;;;;;5030728;28;20069;-68
2023/06/28 12:21:21;;;;;;;2.88;1.80;;;;;;;;;;5029910;28;20033;-67
2023/06/28 12:24:13;;;;;;;8.73;2.30;;;;;;;;;;5030493;28;20148;-72
2023/06/28 12:26:59;;;;;;;4.03;1.58;;;;;;;;;;5031324;28;20042;-71
2023/06/28 12:29:44;;;;;;;5.18;1.50;;;;;;;;;;5031459;28;20051;-76
2023/06/28 12:32:30;;;;;;;4.00;1.52;;;;;;;;;;5029376;28;20040;-69
2023/06/28 12:35:25;;;;;;;4.90;1.52;;;;;;;;;;5028514;28;20464;-74
2023/06/28 12:38:16;;;;;;;4.35;1.77;;;;;;;;;;5029497;28;20056;-74
2023/06/28 12:41:05;;;;;;;7.68;2.50;;;;;;;;;;5032218;28;20025;-68
2023/06/28 12:43:57;;;;;;;3.85;1.67;;;;;;;;;;5034359;28;20048;-66
2023/06/28 12:46:42;;;;;;;2.67;1.60;;;;;;;;;;5039531;28;20041;-66
2023/06/28 12:49:37;;;;;;;4.30;1.88;;;;;;;;;;5027236;28;20699;-66
2023/06/28 12:52:23;;;;;;;3.78;1.70;;;;;;;;;;5028556;28;20041;-69
2023/06/28 12:55:08;;;;;;;10.25;2.13;;;;;;;;;;5028078;28;20055;-64
2023/06/28 12:57:54;;;;;;;3.47;1.42;;;;;;;;;;5030271;28;20041;-65
2023/06/28 13:00:44;;;;;;;5.40;1.67;;;;;;;;;;5028967;28;20391;-70
2023/06/28 13:03:29;;;;;;;5.55;1.95;;;;;;;;;;5020456;28;20132;-80
2023/06/28 13:06:14;;;;;;;5.55;1.90;;;;;;;;;;5039890;28;20361;-73
2023/06/28 13:08:59;;;;;;;3.88;1.63;;;;;;;;;;5027858;28;20032;-72
2023/06/28 13:11:44;;;;;;;7.85;1.80;;;;;;;;;;5037981;28;20724;-73
2023/06/28 13:14:30;;;;;;;3.95;1.75;;;;;;;;;;5032840;28;20029;-72
2023/06/28 13:17:15;;;;;;;3.55;2.08;;;;;;;;;;5030794;28;20036;-65
2023/06/28 13:20:00;;;;;;;5.22;2.03;;;;;;;;;;5031567;28;20085;-65
2023/06/28 13:22:45;;;;;;;3.35;1.40;;;;;;;;;;5029405;28;20546;-65
2023/06/28 13:25:30;;;;;;;4.57;1.75;;;;;;;;;;5028762;28;20034;-63
2023/06/28 13:28:16;;;;;;;5.07;1.80;;;;;;;;;;5033213;28;20026;-65
2023/06/28 13:31:01;;;;;;;3.58;1.90;;;;;;;;;;5024309;28;20033;-65
2023/06/28 13:33:46;;;;;;;3.60;1.75;;;;;;;;;;5025252;28;20033;-64
2023/06/28 13:36:31;;;;;;;3.58;1.60;;;;;;;;;;5027749;28;20035;-74
2023/06/28 13:39:17;;;;;;;3.55;1.30;;;;;;;;;;5009797;28;20029;-67
2023/06/28 13:42:03;;;;;;;5.30;1.80;;;;;;;;;;5024432;28;20045;-65
2023/06/28 13:44:48;;;;;;;4.38;1.50;;;;;;;;;;5028370;28;20530;-67
2023/06/28 13:47:33;;;;;;;3.97;1.85;;;;;;;;;;5014187;28;20460;-65
2023/06/28 13:50:18;;;;;;;5.05;1.70;;;;;;;;;;5028190;28;20080;-68
2023/06/28 13:53:04;;;;;;;7.30;2.25;;;;;;;;;;5027198;28;20037;-70
2023/06/28 13:55:49;;;;;;;3.38;1.75;;;;;;;;;;5029100;28;20442;-74
2023/06/28 13:58:35;;;;;;;7.80;2.30;;;;;;;;;;5028395;28;20029;-64
2023/06/28 14:01:22;;;;;;;4.30;1.83;;;;;;;;;;5014191;28;20660;-64
2023/06/28 14:04:08;;;;;;;3.92;1.70;;;;;;;;;;5014481;28;20045;-63
2023/06/28 14:06:53;;;;;;;4.55;2.20;;;;;;;;;;5028981;28;20112;-65
2023/06/28 14:09:38;;;;;;;7.85;1.92;;;;;;;;;;5028933;28;20336;-63
2023/06/28 14:12:23;;;;;;;5.75;1.70;;;;;;;;;;5029128;28;20029;-62
2023/06/28 14:15:09;;;;;;;4.60;1.77;;;;;;;;;;5026726;28;20073;-66
2023/06/28 14:17:54;;;;;;;7.18;1.90;;;;;;;;;;5029701;28;20045;-64
2023/06/28 14:20:39;;;;;;;5.70;1.80;;;;;;;;;;5031354;28;20116;-66
2023/06/28 14:23:24;;;;;;;3.70;1.65;;;;;;;;;;5024777;28;20472;-65
2023/06/28 14:26:09;;;;;;;3.97;1.75;;;;;;;;;;5036502;28;20213;-64
2023/06/28 14:28:55;;;;;;;3.67;1.50;;;;;;;;;;5041482;28;20033;-64
2023/06/28 14:31:40;;;;;;;5.22;1.92;;;;;;;;;;5026986;28;20384;-71
2023/06/28 14:34:25;;;;;;;11.43;1.73;;;;;;;;;;5029317;28;20083;-65
2023/06/28 14:37:10;;;;;;;7.30;2.13;;;;;;;;;;5024517;28;20042;-64
2023/06/28 14:39:56;;;;;;;9.70;2.42;;;;;;;;;;5026871;28;20041;-64
2023/06/28 14:42:41;;;;;;;3.95;1.77;;;;;;;;;;5038376;28;20040;-65
2023/06/28 14:45:26;;;;;;;3.88;1.75;;;;;;;;;;5029400;28;20033;-63
2023/06/28 14:48:11;;;;;;;4.57;1.60;;;;;;;;;;5023716;28;20041;-65
2023/06/28 14:50:56;;;;;;;4.78;1.80;;;;;;;;;;5034425;28;20484;-64
2023/06/28 14:53:42;;;;;;;5.40;1.95;;;;;;;;;;5024717;28;20049;-69
2023/06/28 14:56:27;;;;;;;3.80;2.10;;;;;;;;;;5028354;28;20041;-68
2023/06/28 14:59:12;;;;;;;4.25;2.30;;;;;;;;;;5026614;28;20037;-68
2023/06/28 15:01:57;;;;;;;2.28;1.50;;;;;;;;;;5034913;28;20426;-68
2023/06/28 15:04:43;;;;;;;2.58;1.63;;;;;;;;;;5031202;28;20040;-68
2023/06/28 15:07:28;;;;;;;5.18;1.92;;;;;;;;;;5025044;28;20036;-72
2023/06/28 15:10:13;;;;;;;4.75;1.77;;;;;;;;;;5028422;28;20526;-72
2023/06/28 15:12:58;;;;;;;4.75;1.90;;;;;;;;;;5036973;28;20259;-70
2023/06/28 15:15:43;;;;;;;3.78;1.83;;;;;;;;;;5033563;28;20120;-73
2023/06/28 15:18:29;;;;;;;4.60;2.42;;;;;;;;;;5030822;28;20109;-72
2023/06/28 15:21:14;;;;;;;4.63;1.85;;;;;;;;;;5027557;28;20037;-72
2023/06/28 15:23:59;;;;;;;4.35;2.10;;;;;;;;;;5036952;28;20037;-72
2023/06/28 15:26:45;;;;;;;4.65;2.05;;;;;;;;;;5026596;28;20044;-72
2023/06/28 15:29:30;;;;;;;1.92;1.67;;;;;;;;;;5028921;28;20223;-71
2023/06/28 15:32:15;;;;;;;6.90;1.80;;;;;;;;;;5018926;28;20061;-72
2023/06/28 15:35:00;;;;;;;6.78;1.90;;;;;;;;;;5013165;28;20041;-69
2023/06/28 15:37:46;;;;;;;7.10;2.50;;;;;;;;;;5036906;28;20036;-70
2023/06/28 15:40:34;;;;;;;6.60;1.92;;;;;;;;;;5026082;28;20072;-71
2023/06/28 15:43:21;;;;;;;5.40;2.60;;;;;;;;;;5026613;28;20061;-63
2023/06/28 15:46:08;;;;;;;3.28;1.60;;;;;;;;;;5028420;28;20395;-64
2023/06/28 15:48:53;;;;;;;6.18;2.30;;;;;;;;;;5026957;28;20036;-69
2023/06/28 15:51:38;;;;;;;7.35;3.03;;;;;;;;;;5025099;28;20116;-71
2023/06/28 15:54:24;;;;;;;5.15;1.85;;;;;;;;;;5019061;28;20119;-71
2023/06/28 15:57:12;;;;;;;2.42;1.73;;;;;;;;;;5006884;28;20038;-70
2023/06/28 15:59:57;;;;;;;3.97;1.85;;;;;;;;;;5024695;28;20077;-70
2023/06/28 16:02:42;;;;;;;4.65;2.00;;;;;;;;;;5025121;28;20569;-68
2023/06/28 16:05:28;;;;;;;4.93;1.80;;;;;;;;;;5030199;28;20120;-69
2023/06/28 16:08:13;;;;;;;3.53;1.70;;;;;;;;;;5023086;28;20017;-70
2023/06/28 16:10:59;;;;;;;4.10;2.00;;;;;;;;;;5035330;28;20114;-71
2023/06/28 16:13:44;;;;;;;3.78;1.98;;;;;;;;;;5020185;28;20095;-72
2023/06/28 16:16:29;;;;;;;5.60;2.30;;;;;;;;;;5025909;28;20030;-71
2023/06/28 16:19:15;;;;;;;28.77;9.25;;;;;;;;;;5026828;28;20040;-71
2023/06/28 16:22:00;;;;;;;33.40;9.30;;;;;;;;;;5035244;28;20120;-70
2023/06/28 16:24:45;;;;;;;15.13;5.75;;;;;;;;;;5031685;28;20037;-65
2023/06/28 16:27:30;;;;;;;26.05;7.13;;;;;;;;;;5025140;28;20029;-68
2023/06/28 16:30:16;;;;;;;5.28;1.98;;;;;;;;;;5037000;28;20475;-69
2023/06/28 16:33:06;;;;;;;8.60;3.38;;;;;;;;;;5017620;28;20034;-67